createdAt,value
2018-04-28T00:00:59.302Z,98.08
2018-04-28T00:01:59.286Z,98.08
2018-04-28T00:02:59.268Z,98.18
2018-04-28T00:03:59.257Z,98.18
2018-04-28T00:04:59.234Z,97.89
2018-04-28T00:05:59.224Z,98.18
2018-04-28T00:06:58.941Z,98.36
2018-04-28T00:07:59.324Z,98.18
2018-04-28T00:08:58.914Z,97.51
2018-04-28T00:09:59.160Z,97.51
2018-04-28T00:10:59.146Z,97.61
2018-04-28T00:11:59.129Z,97.7
2018-04-28T00:12:59.114Z,97.51
2018-04-28T00:13:58.833Z,97.41
2018-04-28T00:14:59.079Z,97.41
2018-04-28T00:15:59.070Z,96.75
2018-04-28T00:16:59.054Z,96.75
2018-04-28T00:17:59.041Z,96.84
2018-04-28T00:18:58.754Z,96.94
2018-04-28T00:19:59.013Z,96.75
2018-04-28T00:20:58.991Z,96.75
2018-04-28T00:21:58.710Z,96.65
2018-04-28T00:22:58.961Z,96.56
2018-04-28T00:23:58.678Z,96.27
2018-04-28T00:24:58.927Z,96.36
2018-04-28T00:25:58.650Z,96.27
2018-04-28T00:26:58.631Z,96.27
2018-04-28T00:27:58.617Z,96.17
2018-04-28T00:28:58.865Z,96.36
2018-04-28T00:29:58.583Z,95.89
2018-04-28T00:30:58.571Z,95.79
2018-04-28T00:31:58.827Z,95.89
2018-04-28T00:32:58.539Z,95.61
2018-04-28T00:33:58.787Z,95.79
2018-04-28T00:34:58.773Z,95.79
2018-04-28T00:35:58.491Z,95.79
2018-04-28T00:36:58.741Z,96.27
2018-04-28T00:37:58.459Z,96.36
2018-04-28T00:38:58.444Z,95.79
2018-04-28T00:39:58.432Z,95.03
2018-04-28T00:40:58.415Z,95.51
2018-04-28T00:41:58.396Z,95.12
2018-04-28T00:42:58.649Z,95.61
2018-04-28T00:43:58.373Z,95.03
2018-04-28T00:44:58.615Z,95.22
2018-04-28T00:45:58.337Z,95.61
2018-04-28T00:46:58.586Z,94.46
2018-04-28T00:47:58.307Z,94.56
2018-04-28T00:48:58.565Z,95.03
2018-04-28T00:49:58.972Z,95.22
2018-04-28T00:50:58.526Z,95.61
2018-04-28T00:51:58.242Z,95.12
2018-04-28T00:52:58.494Z,95.61
2018-04-28T00:53:58.482Z,94.84
2018-04-28T00:54:58.203Z,95.12
2018-04-28T00:55:58.451Z,94.93
2018-04-28T00:56:58.439Z,94.93
2018-04-28T00:57:58.416Z,95.51
2018-04-28T00:58:58.401Z,95.79
2018-04-28T00:59:58.122Z,96.36
2018-04-28T01:00:58.106Z,96.65
2018-04-28T01:01:58.362Z,96.94
2018-04-28T01:02:58.077Z,98.94
2018-04-28T01:03:58.059Z,99.7
2018-04-28T01:04:58.317Z,99.7
2018-04-28T01:05:58.031Z,99.99
2018-04-28T01:06:58.279Z,99.99
2018-04-28T01:07:58.259Z,99.99
2018-04-28T01:08:58.245Z,99.99
2018-04-28T01:09:58.268Z,99.99
2018-04-28T01:10:58.212Z,99.99
2018-04-28T01:11:58.199Z,99.99
2018-04-28T01:12:58.186Z,99.99
2018-04-28T01:13:58.174Z,99.99
2018-04-28T01:14:58.157Z,99.99
2018-04-28T01:15:58.141Z,99.99
2018-04-28T01:16:58.127Z,99.99
2018-04-28T01:17:58.104Z,99.99
2018-04-28T01:18:58.095Z,99.99
2018-04-28T01:19:58.073Z,99.99
2018-04-28T01:20:57.801Z,99.99
2018-04-28T01:21:57.786Z,99.99
2018-04-28T01:22:58.034Z,99.99
2018-04-28T01:23:57.755Z,99.99
2018-04-28T01:24:58.008Z,99.99
2018-04-28T01:25:57.986Z,99.99
2018-04-28T01:26:57.705Z,99.99
2018-04-28T01:27:57.957Z,99.99
2018-04-28T01:28:57.676Z,99.99
2018-04-28T01:29:57.951Z,99.99
2018-04-28T01:30:57.906Z,99.99
2018-04-28T01:31:57.894Z,99.99
2018-04-28T01:32:57.877Z,99.99
2018-04-28T01:33:57.617Z,99.99
2018-04-28T01:34:57.581Z,99.99
2018-04-28T01:35:57.571Z,99.99
2018-04-28T01:36:57.556Z,99.99
2018-04-28T01:37:57.535Z,99.99
2018-04-28T01:38:57.786Z,99.99
2018-04-28T01:39:57.775Z,99.99
2018-04-28T01:40:57.762Z,99.99
2018-04-28T01:41:57.747Z,99.99
2018-04-28T01:42:57.463Z,99.99
2018-04-28T01:43:57.716Z,99.99
2018-04-28T01:44:57.700Z,99.99
2018-04-28T01:45:57.418Z,99.99
2018-04-28T01:46:57.404Z,99.99
2018-04-28T01:47:57.450Z,99.99
2018-04-28T01:48:57.640Z,99.99
2018-04-28T01:49:57.360Z,99.99
2018-04-28T01:50:57.349Z,99.99
2018-04-28T01:51:57.597Z,99.99
2018-04-28T01:52:57.315Z,99.99
2018-04-28T01:53:57.300Z,99.99
2018-04-28T01:54:57.285Z,99.99
2018-04-28T01:55:57.277Z,99.99
2018-04-28T01:56:57.524Z,99.99
2018-04-28T01:57:57.240Z,99.99
2018-04-28T01:58:57.227Z,99.99
2018-04-28T01:59:57.213Z,99.99
2018-04-28T02:00:57.467Z,99.99
2018-04-28T02:01:57.181Z,99.99
2018-04-28T02:02:57.178Z,99.99
2018-04-28T02:03:57.424Z,99.99
2018-04-28T02:04:57.136Z,99.99
2018-04-28T02:05:57.386Z,99.99
2018-04-28T02:06:57.374Z,99.99
2018-04-28T02:07:57.360Z,99.99
2018-04-28T02:08:57.349Z,99.99
2018-04-28T02:09:57.330Z,99.99
2018-04-28T02:10:57.330Z,99.99
2018-04-28T02:11:57.297Z,99.99
2018-04-28T02:12:57.021Z,99.99
2018-04-28T02:13:57.270Z,99.99
2018-04-28T02:14:57.261Z,99.99
2018-04-28T02:15:57.234Z,99.99
2018-04-28T02:16:56.960Z,99.99
2018-04-28T02:17:57.216Z,99.99
2018-04-28T02:18:57.200Z,99.99
2018-04-28T02:19:57.179Z,99.99
2018-04-28T02:20:57.158Z,99.99
2018-04-28T02:21:56.889Z,99.99
2018-04-28T02:22:57.134Z,99.99
2018-04-28T02:23:56.849Z,99.99
2018-04-28T02:24:56.839Z,99.99
2018-04-28T02:25:57.088Z,99.99
2018-04-28T02:26:57.073Z,99.99
2018-04-28T02:27:57.063Z,99.99
2018-04-28T02:28:57.048Z,99.99
2018-04-28T02:29:56.766Z,99.99
2018-04-28T02:30:56.753Z,99.99
2018-04-28T02:31:56.738Z,99.99
2018-04-28T02:32:56.988Z,99.99
2018-04-28T02:33:56.977Z,99.99
2018-04-28T02:34:56.954Z,99.99
2018-04-28T02:35:56.940Z,99.99
2018-04-28T02:36:56.927Z,99.99
2018-04-28T02:37:56.649Z,99.99
2018-04-28T02:38:56.911Z,99.99
2018-04-28T02:39:56.878Z,99.99
2018-04-28T02:40:56.864Z,99.99
2018-04-28T02:41:56.581Z,99.99
2018-04-28T02:42:56.836Z,99.99
2018-04-28T02:43:56.822Z,99.99
2018-04-28T02:44:56.535Z,99.99
2018-04-28T02:45:56.523Z,99.99
2018-04-28T02:46:56.786Z,99.99
2018-04-28T02:47:56.871Z,99.99
2018-04-28T02:48:56.476Z,99.99
2018-04-28T02:49:56.926Z,99.99
2018-04-28T02:50:56.447Z,99.99
2018-04-28T02:51:56.695Z,99.99
2018-04-28T02:52:56.686Z,99.99
2018-04-28T02:53:56.665Z,99.99
2018-04-28T02:54:56.393Z,99.99
2018-04-28T02:55:56.387Z,99.99
2018-04-28T02:56:56.624Z,99.99
2018-04-28T02:57:56.607Z,99.99
2018-04-28T02:58:56.592Z,99.99
2018-04-28T02:59:56.313Z,99.99
2018-04-28T03:00:56.560Z,99.99
2018-04-28T03:01:56.544Z,99.99
2018-04-28T03:02:56.733Z,99.99
2018-04-28T03:03:56.522Z,99.99
2018-04-28T03:04:56.236Z,99.99
2018-04-28T03:05:56.219Z,99.99
2018-04-28T03:06:56.472Z,99.99
2018-04-28T03:07:56.190Z,99.99
2018-04-28T03:08:56.443Z,99.99
2018-04-28T03:09:56.160Z,99.99
2018-04-28T03:10:56.416Z,99.99
2018-04-28T03:11:56.133Z,99.99
2018-04-28T03:12:56.386Z,99.99
2018-04-28T03:13:56.104Z,99.99
2018-04-28T03:14:56.359Z,99.99
2018-04-28T03:15:56.335Z,99.99
2018-04-28T03:16:56.320Z,99.99
2018-04-28T03:17:56.037Z,99.99
2018-04-28T03:18:56.028Z,99.99
2018-04-28T03:19:56.272Z,99.99
2018-04-28T03:20:55.995Z,99.99
2018-04-28T03:21:56.244Z,99.99
2018-04-28T03:22:55.961Z,99.99
2018-04-28T03:23:56.237Z,99.99
2018-04-28T03:24:55.932Z,99.99
2018-04-28T03:25:55.918Z,99.99
2018-04-28T03:26:56.168Z,99.99
2018-04-28T03:27:55.886Z,99.99
2018-04-28T03:28:56.137Z,99.99
2018-04-28T03:29:55.853Z,99.99
2018-04-28T03:30:56.106Z,99.99
2018-04-28T03:31:55.831Z,99.99
2018-04-28T03:32:55.815Z,99.99
2018-04-28T03:33:55.795Z,99.99
2018-04-28T03:34:55.779Z,99.99
2018-04-28T03:35:55.763Z,99.99
2018-04-28T03:36:56.015Z,99.99
2018-04-28T03:37:56.000Z,99.99
2018-04-28T03:38:55.721Z,99.99
2018-04-28T03:39:55.965Z,99.99
2018-04-28T03:40:55.949Z,99.99
2018-04-28T03:41:55.933Z,99.99
2018-04-28T03:42:55.926Z,99.99
2018-04-28T03:43:55.910Z,99.99
2018-04-28T03:44:55.887Z,99.99
2018-04-28T03:45:55.877Z,99.99
2018-04-28T03:46:55.591Z,99.99
2018-04-28T03:47:55.841Z,99.99
2018-04-28T03:48:55.563Z,99.99
2018-04-28T03:49:55.547Z,99.99
2018-04-28T03:50:55.880Z,99.99
2018-04-28T03:51:55.517Z,99.99
2018-04-28T03:52:55.770Z,99.99
2018-04-28T03:53:55.757Z,99.99
2018-04-28T03:54:55.471Z,99.99
2018-04-28T03:55:55.735Z,99.99
2018-04-28T03:56:55.441Z,99.99
2018-04-28T03:57:55.693Z,99.99
2018-04-28T03:58:55.412Z,99.99
2018-04-28T03:59:55.658Z,99.99
2018-04-28T04:00:55.642Z,99.99
2018-04-28T04:01:55.632Z,99.99
2018-04-28T04:02:55.347Z,99.99
2018-04-28T04:03:55.601Z,99.99
2018-04-28T04:04:55.581Z,99.99
2018-04-28T04:05:55.301Z,99.99
2018-04-28T04:06:55.287Z,99.99
2018-04-28T04:07:55.536Z,99.99
2018-04-28T04:08:55.259Z,99.99
2018-04-28T04:09:55.244Z,99.99
2018-04-28T04:10:55.487Z,99.99
2018-04-28T04:11:55.488Z,99.99
2018-04-28T04:12:55.467Z,99.99
2018-04-28T04:13:55.456Z,99.99
2018-04-28T04:14:55.426Z,99.99
2018-04-28T04:15:55.145Z,99.99
2018-04-28T04:16:55.131Z,99.99
2018-04-28T04:17:55.383Z,99.99
2018-04-28T04:18:55.376Z,99.99
2018-04-28T04:19:55.353Z,99.99
2018-04-28T04:20:55.337Z,99.99
2018-04-28T04:21:55.320Z,99.99
2018-04-28T04:22:55.036Z,99.99
2018-04-28T04:23:55.300Z,99.99
2018-04-28T04:24:55.271Z,99.99
2018-04-28T04:25:55.257Z,99.99
2018-04-28T04:26:55.310Z,99.99
2018-04-28T04:27:55.223Z,99.99
2018-04-28T04:28:55.212Z,99.99
2018-04-28T04:29:55.194Z,99.99
2018-04-28T04:30:54.913Z,99.99
2018-04-28T04:31:54.927Z,99.99
2018-04-28T04:32:54.880Z,99.99
2018-04-28T04:33:55.136Z,99.99
2018-04-28T04:34:54.853Z,99.99
2018-04-28T04:35:55.104Z,99.99
2018-04-28T04:36:55.089Z,99.99
2018-04-28T04:37:55.075Z,99.99
2018-04-28T04:38:55.056Z,99.99
2018-04-28T04:39:54.774Z,99.99
2018-04-28T04:40:54.764Z,99.99
2018-04-28T04:41:55.007Z,99.99
2018-04-28T04:42:54.986Z,99.99
2018-04-28T04:43:54.716Z,99.99
2018-04-28T04:44:54.969Z,99.99
2018-04-28T04:45:54.683Z,99.99
2018-04-28T04:46:54.936Z,99.99
2018-04-28T04:47:54.922Z,99.99
2018-04-28T04:48:54.907Z,99.99
2018-04-28T04:49:55.086Z,99.99
2018-04-28T04:50:54.878Z,99.99
2018-04-28T04:51:54.592Z,99.99
2018-04-28T04:52:54.840Z,99.99
2018-04-28T04:53:54.830Z,99.99
2018-04-28T04:54:54.546Z,99.99
2018-04-28T04:55:54.790Z,99.99
2018-04-28T04:56:54.780Z,99.99
2018-04-28T04:57:54.772Z,99.99
2018-04-28T04:58:54.747Z,99.99
2018-04-28T04:59:54.469Z,99.99
2018-04-28T05:00:54.807Z,99.99
2018-04-28T05:01:54.711Z,99.99
2018-04-28T05:02:54.697Z,99.99
2018-04-28T05:03:54.408Z,99.99
2018-04-28T05:04:54.658Z,99.99
2018-04-28T05:05:54.375Z,99.99
2018-04-28T05:06:54.638Z,99.99
2018-04-28T05:07:54.349Z,99.99
2018-04-28T05:08:54.598Z,99.99
2018-04-28T05:09:54.617Z,99.99
2018-04-28T05:10:54.577Z,99.99
2018-04-28T05:11:54.550Z,99.99
2018-04-28T05:12:54.537Z,99.99
2018-04-28T05:13:54.527Z,99.99
2018-04-28T05:14:54.243Z,99.99
2018-04-28T05:15:54.227Z,99.99
2018-04-28T05:16:54.474Z,99.99
2018-04-28T05:17:54.471Z,99.99
2018-04-28T05:18:54.443Z,99.99
2018-04-28T05:19:54.433Z,99.99
2018-04-28T05:20:54.417Z,99.99
2018-04-28T05:21:54.133Z,99.99
2018-04-28T05:22:54.386Z,99.99
2018-04-28T05:23:54.381Z,99.99
2018-04-28T05:24:54.366Z,99.99
2018-04-28T05:25:54.358Z,99.99
2018-04-28T05:26:54.079Z,99.99
2018-04-28T05:27:54.315Z,99.99
2018-04-28T05:28:54.042Z,99.99
2018-04-28T05:29:54.036Z,99.99
2018-04-28T05:30:54.272Z,99.99
2018-04-28T05:31:54.306Z,99.99
2018-04-28T05:32:54.238Z,99.99
2018-04-28T05:33:54.236Z,99.99
2018-04-28T05:34:54.413Z,99.99
2018-04-28T05:35:53.948Z,99.99
2018-04-28T05:36:53.910Z,99.99
2018-04-28T05:37:53.900Z,99.99
2018-04-28T05:38:54.149Z,99.99
2018-04-28T05:39:53.873Z,99.99
2018-04-28T05:40:54.126Z,99.99
2018-04-28T05:41:53.848Z,99.99
2018-04-28T05:42:54.110Z,99.99
2018-04-28T05:43:54.087Z,99.99
2018-04-28T05:44:54.059Z,99.99
2018-04-28T05:45:53.793Z,99.99
2018-04-28T05:46:53.768Z,99.99
2018-04-28T05:47:54.087Z,99.99
2018-04-28T05:48:53.743Z,99.99
2018-04-28T05:49:54.019Z,99.99
2018-04-28T05:50:53.718Z,99.99
2018-04-28T05:51:53.712Z,99.99
2018-04-28T05:52:53.700Z,99.99
2018-04-28T05:53:53.962Z,99.99
2018-04-28T05:54:53.933Z,99.99
2018-04-28T05:55:53.915Z,99.99
2018-04-28T05:56:53.628Z,99.99
2018-04-28T05:57:53.957Z,99.99
2018-04-28T05:58:53.866Z,99.99
2018-04-28T05:59:53.848Z,99.99
2018-04-28T06:00:53.839Z,99.99
2018-04-28T06:01:53.556Z,99.99
2018-04-28T06:02:53.815Z,99.99
2018-04-28T06:03:53.532Z,99.99
2018-04-28T06:04:53.517Z,99.99
2018-04-28T06:05:53.506Z,99.99
2018-04-28T06:06:53.807Z,99.99
2018-04-28T06:07:53.749Z,99.99
2018-04-28T06:08:53.470Z,99.99
2018-04-28T06:09:53.450Z,99.99
2018-04-28T06:10:53.701Z,99.99
2018-04-28T06:11:53.684Z,99.99
2018-04-28T06:12:53.673Z,99.99
2018-04-28T06:13:53.661Z,99.99
2018-04-28T06:14:53.385Z,99.99
2018-04-28T06:15:53.634Z,99.99
2018-04-28T06:16:53.356Z,99.99
2018-04-28T06:17:53.346Z,99.99
2018-04-28T06:18:53.600Z,99.99
2018-04-28T06:19:53.371Z,99.99
2018-04-28T06:20:53.306Z,99.99
2018-04-28T06:21:53.557Z,99.99
2018-04-28T06:22:53.544Z,99.99
2018-04-28T06:23:53.528Z,99.99
2018-04-28T06:24:53.245Z,99.99
2018-04-28T06:25:53.284Z,99.99
2018-04-28T06:26:53.226Z,99.99
2018-04-28T06:27:53.473Z,99.99
2018-04-28T06:28:53.196Z,99.99
2018-04-28T06:29:53.185Z,99.99
2018-04-28T06:30:53.435Z,99.99
2018-04-28T06:31:53.426Z,99.99
2018-04-28T06:32:53.414Z,99.99
2018-04-28T06:33:53.395Z,99.99
2018-04-28T06:34:53.385Z,99.99
2018-04-28T06:35:53.184Z,99.99
2018-04-28T06:36:53.356Z,99.99
2018-04-28T06:37:53.079Z,99.99
2018-04-28T06:38:53.330Z,99.99
2018-04-28T06:39:53.317Z,99.99
2018-04-28T06:40:53.320Z,99.99
2018-04-28T06:41:53.294Z,99.99
2018-04-28T06:42:53.282Z,99.99
2018-04-28T06:43:53.011Z,99.99
2018-04-28T06:44:52.990Z,99.99
2018-04-28T06:45:53.247Z,99.99
2018-04-28T06:46:53.225Z,99.99
2018-04-28T06:47:52.953Z,99.99
2018-04-28T06:48:52.936Z,99.99
2018-04-28T06:49:53.191Z,99.99
2018-04-28T06:50:53.174Z,99.99
2018-04-28T06:51:53.159Z,99.99
2018-04-28T06:52:52.883Z,99.99
2018-04-28T06:53:52.872Z,99.99
2018-04-28T06:54:52.864Z,99.99
2018-04-28T06:55:53.111Z,99.99
2018-04-28T06:56:52.831Z,99.99
2018-04-28T06:57:52.818Z,99.99
2018-04-28T06:58:53.074Z,99.99
2018-04-28T06:59:53.056Z,99.99
2018-04-28T07:00:53.042Z,99.99
2018-04-28T07:01:53.028Z,99.99
2018-04-28T07:02:52.754Z,99.99
2018-04-28T07:03:53.008Z,99.99
2018-04-28T07:04:52.993Z,99.99
2018-04-28T07:05:52.980Z,99.99
2018-04-28T07:06:52.971Z,99.99
2018-04-28T07:07:52.953Z,99.99
2018-04-28T07:08:52.943Z,99.99
2018-04-28T07:09:52.668Z,99.99
2018-04-28T07:10:52.745Z,99.99
2018-04-28T07:11:52.638Z,99.99
2018-04-28T07:12:52.899Z,99.99
2018-04-28T07:13:52.880Z,99.99
2018-04-28T07:14:52.609Z,99.99
2018-04-28T07:15:52.589Z,99.99
2018-04-28T07:16:52.848Z,99.99
2018-04-28T07:17:52.572Z,99.99
2018-04-28T07:18:52.549Z,99.99
2018-04-28T07:19:52.800Z,99.99
2018-04-28T07:20:52.804Z,99.99
2018-04-28T07:21:52.778Z,99.99
2018-04-28T07:22:52.501Z,99.99
2018-04-28T07:23:52.489Z,99.99
2018-04-28T07:24:52.737Z,99.99
2018-04-28T07:25:52.461Z,99.99
2018-04-28T07:26:52.717Z,99.99
2018-04-28T07:27:52.702Z,99.99
2018-04-28T07:28:52.692Z,99.99
2018-04-28T07:29:52.679Z,99.99
2018-04-28T07:30:52.396Z,99.99
2018-04-28T07:31:52.648Z,99.99
2018-04-28T07:32:52.639Z,99.99
2018-04-28T07:33:52.625Z,99.99
2018-04-28T07:34:52.348Z,99.99
2018-04-28T07:35:52.333Z,99.99
2018-04-28T07:36:52.583Z,99.99
2018-04-28T07:37:52.312Z,99.99
2018-04-28T07:38:52.562Z,99.99
2018-04-28T07:39:52.552Z,99.99
2018-04-28T07:40:52.538Z,99.99
2018-04-28T07:41:52.266Z,99.99
2018-04-28T07:42:52.260Z,99.99
2018-04-28T07:43:52.240Z,99.99
2018-04-28T07:44:52.496Z,99.99
2018-04-28T07:45:52.218Z,99.99
2018-04-28T07:46:52.207Z,99.99
2018-04-28T07:47:52.458Z,99.99
2018-04-28T07:48:52.453Z,99.99
2018-04-28T07:49:52.168Z,99.99
2018-04-28T07:50:52.440Z,99.99
2018-04-28T07:51:52.148Z,99.99
2018-04-28T07:52:52.399Z,99.99
2018-04-28T07:53:52.392Z,99.99
2018-04-28T07:54:52.374Z,99.99
2018-04-28T07:55:52.108Z,99.99
2018-04-28T07:56:52.090Z,99.99
2018-04-28T07:57:52.290Z,99.99
2018-04-28T07:58:52.066Z,99.99
2018-04-28T07:59:52.328Z,99.99
2018-04-28T08:00:52.308Z,99.99
2018-04-28T08:01:52.290Z,99.99
2018-04-28T08:02:52.285Z,99.99
2018-04-28T08:03:52.007Z,99.99
2018-04-28T08:04:51.995Z,99.99
2018-04-28T08:05:52.257Z,99.99
2018-04-28T08:06:52.238Z,99.99
2018-04-28T08:07:52.019Z,99.99
2018-04-28T08:08:51.950Z,99.99
2018-04-28T08:09:52.210Z,99.99
2018-04-28T08:10:52.191Z,99.99
2018-04-28T08:11:51.910Z,99.99
2018-04-28T08:12:52.240Z,99.99
2018-04-28T08:13:52.156Z,99.99
2018-04-28T08:14:51.878Z,99.99
2018-04-28T08:15:51.866Z,99.99
2018-04-28T08:16:52.122Z,99.99
2018-04-28T08:17:52.108Z,99.99
2018-04-28T08:18:52.101Z,99.99
2018-04-28T08:19:51.824Z,99.99
2018-04-28T08:20:52.086Z,99.99
2018-04-28T08:21:52.068Z,99.99
2018-04-28T08:22:52.057Z,99.99
2018-04-28T08:23:52.046Z,99.99
2018-04-28T08:24:52.037Z,99.99
2018-04-28T08:25:52.019Z,99.99
2018-04-28T08:26:51.755Z,99.99
2018-04-28T08:27:52.000Z,99.99
2018-04-28T08:28:51.990Z,99.99
2018-04-28T08:29:51.980Z,99.99
2018-04-28T08:30:51.706Z,99.99
2018-04-28T08:31:51.695Z,99.99
2018-04-28T08:32:51.681Z,99.99
2018-04-28T08:33:51.676Z,99.99
2018-04-28T08:34:51.663Z,99.99
2018-04-28T08:35:51.915Z,99.99
2018-04-28T08:36:51.931Z,99.99
2018-04-28T08:37:51.895Z,99.99
2018-04-28T08:38:51.887Z,99.99
2018-04-28T08:39:51.613Z,99.99
2018-04-28T08:40:51.875Z,99.99
2018-04-28T08:41:51.590Z,99.99
2018-04-28T08:42:51.580Z,99.99
2018-04-28T08:43:51.567Z,99.99
2018-04-28T08:44:51.558Z,99.99
2018-04-28T08:45:51.813Z,99.99
2018-04-28T08:46:51.534Z,99.99
2018-04-28T08:47:51.524Z,99.99
2018-04-28T08:48:51.776Z,99.99
2018-04-28T08:49:51.504Z,99.99
2018-04-28T08:50:51.493Z,99.99
2018-04-28T08:51:51.746Z,99.99
2018-04-28T08:52:51.470Z,99.99
2018-04-28T08:53:51.944Z,99.99
2018-04-28T08:54:51.449Z,99.99
2018-04-28T08:55:51.441Z,99.99
2018-04-28T08:56:51.703Z,99.99
2018-04-28T08:57:51.416Z,99.99
2018-04-28T08:58:51.409Z,99.99
2018-04-28T08:59:51.403Z,99.99
2018-04-28T09:00:51.661Z,99.99
2018-04-28T09:01:51.374Z,97.38
2018-04-28T09:02:51.633Z,99.01
2018-04-28T09:03:51.787Z,99.99
2018-04-28T09:04:51.610Z,97.33
2018-04-28T09:05:51.599Z,95.36
2018-04-28T09:06:51.326Z,96.89
2018-04-28T09:07:51.314Z,96.18
2018-04-28T09:08:51.570Z,97.76
2018-04-28T09:09:51.559Z,99.49
2018-04-28T09:10:51.555Z,97.86
2018-04-28T09:11:51.540Z,97.56
2018-04-28T09:12:51.263Z,99.39
2018-04-28T09:13:51.519Z,96.42
2018-04-28T09:14:51.251Z,97.09
2018-04-28T09:15:51.510Z,96.8
2018-04-28T09:16:51.498Z,98.05
2018-04-28T09:17:51.487Z,97.95
2018-04-28T09:18:51.475Z,95.7
2018-04-28T09:19:51.199Z,96.37
2018-04-28T09:20:51.459Z,96.94
2018-04-28T09:21:51.446Z,94.35
2018-04-28T09:22:51.443Z,93.97
2018-04-28T09:23:51.167Z,93.87
2018-04-28T09:24:51.157Z,94.98
2018-04-28T09:25:51.408Z,95.07
2018-04-28T09:26:51.153Z,96.03
2018-04-28T09:27:51.398Z,95.36
2018-04-28T09:28:51.386Z,97.09
2018-04-28T09:29:51.374Z,97.09
2018-04-28T09:30:51.101Z,96.99
2018-04-28T09:31:51.361Z,97.76
2018-04-28T09:32:51.343Z,96.47
2018-04-28T09:33:51.333Z,96.75
2018-04-28T09:34:51.326Z,95.31
2018-04-28T09:35:51.051Z,93.2
2018-04-28T09:36:51.041Z,93.3
2018-04-28T09:37:51.038Z,92.43
2018-04-28T09:38:51.289Z,94.07
2018-04-28T09:39:51.023Z,94.83
2018-04-28T09:40:51.286Z,94.74
2018-04-28T09:41:50.997Z,96.08
2018-04-28T09:42:50.986Z,96.85
2018-04-28T09:43:50.976Z,94.93
2018-04-28T09:44:51.231Z,95.41
2018-04-28T09:45:51.230Z,94.45
2018-04-28T09:46:51.232Z,94.16
2018-04-28T09:47:51.206Z,94.88
2018-04-28T09:48:50.936Z,95.65
2018-04-28T09:49:50.920Z,94.21
2018-04-28T09:50:51.176Z,95.46
2018-04-28T09:51:51.167Z,96.61
2018-04-28T09:52:51.156Z,97.09
2018-04-28T09:53:50.889Z,95.84
2018-04-28T09:54:50.879Z,96.42
2018-04-28T09:55:50.863Z,95.26
2018-04-28T09:56:50.851Z,94.64
2018-04-28T09:57:51.107Z,95.03
2018-04-28T09:58:51.112Z,96.08
2018-04-28T09:59:50.826Z,96.75
2018-04-28T10:00:51.079Z,96.37
2018-04-28T10:01:50.810Z,96.75
2018-04-28T10:02:51.066Z,96.18
2018-04-28T10:03:50.785Z,95.12
2018-04-28T10:04:50.782Z,95.12
2018-04-28T10:05:50.767Z,96.66
2018-04-28T10:06:50.756Z,97.23
2018-04-28T10:07:50.749Z,97.61
2018-04-28T10:08:50.739Z,98.28
2018-04-28T10:09:50.993Z,98.86
2018-04-28T10:10:50.980Z,99.15
2018-04-28T10:11:50.986Z,97.81
2018-04-28T10:12:51.089Z,97.33
2018-04-28T10:13:50.684Z,97.33
2018-04-28T10:14:50.671Z,98.96
2018-04-28T10:15:50.931Z,98
2018-04-28T10:16:50.652Z,97.66
2018-04-28T10:17:50.906Z,97.19
2018-04-28T10:18:50.635Z,96.61
2018-04-28T10:19:50.886Z,95.98
2018-04-28T10:20:50.919Z,95.6
2018-04-28T10:21:50.899Z,94.45
2018-04-28T10:22:50.905Z,96.66
2018-04-28T10:23:50.626Z,94.16
2018-04-28T10:24:50.639Z,93.77
2018-04-28T10:25:50.834Z,92.91
2018-04-28T10:26:50.553Z,93.3
2018-04-28T10:27:51.159Z,93.77
2018-04-28T10:28:50.547Z,92.63
2018-04-28T10:29:50.528Z,93.01
2018-04-28T10:30:50.540Z,93.2
2018-04-28T10:31:50.512Z,92.72
2018-04-28T10:32:50.769Z,93.97
2018-04-28T10:33:50.758Z,94.35
2018-04-28T10:34:50.476Z,93.68
2018-04-28T10:35:50.471Z,93.77
2018-04-28T10:36:50.712Z,94.45
2018-04-28T10:37:50.508Z,96.08
2018-04-28T10:38:50.449Z,96.08
2018-04-28T10:39:50.433Z,91.86
2018-04-28T10:40:50.420Z,91.09
2018-04-28T10:41:50.414Z,91.96
2018-04-28T10:42:50.403Z,92.24
2018-04-28T10:43:50.657Z,93.54
2018-04-28T10:44:50.647Z,93.63
2018-04-28T10:45:50.644Z,94.49
2018-04-28T10:46:50.629Z,93.25
2018-04-28T10:47:50.360Z,93.73
2018-04-28T10:48:50.846Z,94.88
2018-04-28T10:49:50.900Z,93.44
2018-04-28T10:50:50.358Z,93.01
2018-04-28T10:51:50.317Z,93.44
2018-04-28T10:52:50.570Z,93.15
2018-04-28T10:53:50.372Z,93.63
2018-04-28T10:54:50.606Z,93.92
2018-04-28T10:55:50.541Z,93.73
2018-04-28T10:56:50.265Z,93.82
2018-04-28T10:57:50.258Z,92.68
2018-04-28T10:58:50.247Z,92.86
2018-04-28T10:59:50.506Z,93.73
2018-04-28T11:00:50.227Z,93.44
2018-04-28T11:01:50.482Z,93.44
2018-04-28T11:02:50.474Z,95.03
2018-04-28T11:03:50.460Z,97.47
2018-04-28T11:04:50.453Z,95.84
2018-04-28T11:05:50.444Z,95.55
2018-04-28T11:06:50.433Z,95.26
2018-04-28T11:07:50.157Z,94.59
2018-04-28T11:08:50.415Z,93.92
2018-04-28T11:09:50.405Z,93.15
2018-04-28T11:10:50.390Z,93.06
2018-04-28T11:11:50.384Z,91.14
2018-04-28T11:12:50.377Z,92.63
2018-04-28T11:13:50.369Z,93.01
2018-04-28T11:14:50.091Z,93.97
2018-04-28T11:15:50.084Z,94.01
2018-04-28T11:16:50.345Z,90.37
2018-04-28T11:17:50.325Z,89.02
2018-04-28T11:18:50.317Z,87.39
2018-04-28T11:19:50.135Z,87.35
2018-04-28T11:20:50.300Z,89.36
2018-04-28T11:21:50.294Z,88.79
2018-04-28T11:22:50.017Z,87.92
2018-04-28T11:23:50.276Z,88.88
2018-04-28T11:24:50.263Z,88.06
2018-04-28T11:25:50.047Z,87.44
2018-04-28T11:26:49.982Z,88.11
2018-04-28T11:27:50.246Z,88.16
2018-04-28T11:28:50.232Z,88.25
2018-04-28T11:29:50.217Z,87.39
2018-04-28T11:30:49.953Z,87.49
2018-04-28T11:31:49.941Z,87.19
2018-04-28T11:32:50.283Z,87.96
2018-04-28T11:33:50.186Z,85.95
2018-04-28T11:34:50.178Z,86.62
2018-04-28T11:35:50.175Z,87.01
2018-04-28T11:36:49.895Z,86.81
2018-04-28T11:37:49.898Z,85.62
2018-04-28T11:38:50.147Z,85.91
2018-04-28T11:39:49.871Z,87.73
2018-04-28T11:40:50.130Z,87.92
2018-04-28T11:41:49.853Z,89.65
2018-04-28T11:42:50.110Z,90.52
2018-04-28T11:43:50.100Z,87.1
2018-04-28T11:44:49.832Z,88.79
2018-04-28T11:45:50.082Z,87.82
2018-04-28T11:46:50.080Z,88.49
2018-04-28T11:47:49.808Z,86.29
2018-04-28T11:48:50.083Z,87.73
2018-04-28T11:49:49.789Z,88.69
2018-04-28T11:50:50.047Z,88.73
2018-04-28T11:51:49.774Z,87.96
2018-04-28T11:52:49.766Z,86.66
2018-04-28T11:53:49.770Z,85.22
2018-04-28T11:54:50.213Z,85.99
2018-04-28T11:55:50.034Z,85.69
2018-04-28T11:56:49.738Z,82.96
2018-04-28T11:57:50.000Z,82.42
2018-04-28T11:58:50.081Z,81.94
2018-04-28T11:59:49.999Z,82.67
2018-04-28T12:00:49.988Z,82.57
2018-04-28T12:01:49.973Z,82.57
2018-04-28T12:02:49.696Z,81.71
2018-04-28T12:03:49.679Z,77.86
2018-04-28T12:04:49.957Z,79.11
2018-04-28T12:05:50.135Z,79.79
2018-04-28T12:06:49.668Z,80.22
2018-04-28T12:07:49.913Z,80.9
2018-04-28T12:08:49.650Z,81.38
2018-04-28T12:09:49.639Z,80.99
2018-04-28T12:10:49.905Z,80.42
2018-04-28T12:11:49.626Z,79.55
2018-04-28T12:12:49.889Z,79.52
2018-04-28T12:13:49.895Z,80.04
2018-04-28T12:14:49.875Z,79.65
2018-04-28T12:15:49.604Z,79.79
2018-04-28T12:16:49.859Z,78.44
2018-04-28T12:17:49.587Z,76.36
2018-04-28T12:18:49.845Z,77.81
2018-04-28T12:19:50.037Z,77.9
2018-04-28T12:20:49.839Z,76.46
2018-04-28T12:21:49.556Z,78.86
2018-04-28T12:22:49.827Z,76.69
2018-04-28T12:23:49.819Z,76.18
2018-04-28T12:24:49.541Z,73.53
2018-04-28T12:25:49.803Z,73.91
2018-04-28T12:26:49.530Z,75.68
2018-04-28T12:27:49.815Z,72.21
2018-04-28T12:28:49.521Z,73.53
2018-04-28T12:29:49.607Z,74.4
2018-04-28T12:30:49.511Z,74.1
2018-04-28T12:31:49.512Z,74.45
2018-04-28T12:32:49.778Z,74.99
2018-04-28T12:33:49.505Z,75.44
2018-04-28T12:34:49.493Z,75.98
2018-04-28T12:35:49.499Z,76.07
2018-04-28T12:36:49.486Z,75.79
2018-04-28T12:37:49.750Z,76.52
2018-04-28T12:38:49.483Z,77.19
2018-04-28T12:39:49.735Z,78.78
2018-04-28T12:40:49.462Z,78.98
2018-04-28T12:41:49.728Z,79.55
2018-04-28T12:42:49.451Z,80.22
2018-04-28T12:43:49.711Z,79.99
2018-04-28T12:44:49.698Z,80.47
2018-04-28T12:45:49.429Z,81.63
2018-04-28T12:46:49.421Z,82.78
2018-04-28T12:47:49.682Z,81.53
2018-04-28T12:48:49.410Z,81.28
2018-04-28T12:49:49.668Z,81.09
2018-04-28T12:50:50.060Z,81.19
2018-04-28T12:51:49.393Z,80.04
2018-04-28T12:52:49.643Z,80.71
2018-04-28T12:53:49.646Z,81.09